createdAt,value
2022-08-05T00:00:46.650Z,25.10
2022-08-05T00:01:53.208Z,24.94
2022-08-05T00:03:02.188Z,25.03
2022-08-05T00:04:09.108Z,25.01
2022-08-05T00:06:03.096Z,24.94
2022-08-05T00:06:39.357Z,24.91
2022-08-05T00:07:59.779Z,24.93
2022-08-05T00:09:12.920Z,24.84
2022-08-05T00:10:17.659Z,24.86
2022-08-05T00:11:30.191Z,24.86
2022-08-05T00:12:56.053Z,24.83
2022-08-05T00:13:59.932Z,24.81
2022-08-05T00:15:13.952Z,24.81
2022-08-05T00:16:36.343Z,24.81
2022-08-05T00:17:48.716Z,24.82
2022-08-05T00:18:53.716Z,24.76
2022-08-05T00:20:02.769Z,24.74
2022-08-05T00:21:08.326Z,24.84
2022-08-05T00:22:11.773Z,24.75
2022-08-05T00:23:14.792Z,24.73
2022-08-05T00:24:24.110Z,24.71
2022-08-05T00:25:27.804Z,24.88
2022-08-05T00:26:51.801Z,24.89
2022-08-05T00:27:55.331Z,24.76
2022-08-05T00:28:58.288Z,24.68
2022-08-05T00:30:03.432Z,24.75
2022-08-05T00:31:07.818Z,24.67
2022-08-05T00:32:14.967Z,24.61
2022-08-05T00:34:55.197Z,24.67
2022-08-05T00:35:04.825Z,24.75
2022-08-05T00:36:16.185Z,24.81
2022-08-05T00:37:35.591Z,24.66
2022-08-05T00:38:54.897Z,24.57
2022-08-05T00:40:02.877Z,24.50
2022-08-05T00:41:11.710Z,24.55
2022-08-05T00:42:32.076Z,24.57
2022-08-05T00:43:46.980Z,24.48
2022-08-05T00:44:50.372Z,24.49
2022-08-05T00:45:54.289Z,24.51
2022-08-05T00:47:04.197Z,24.40
2022-08-05T00:48:09.503Z,24.41
2022-08-05T00:49:14.034Z,24.50
2022-08-05T00:50:17.609Z,24.56
2022-08-05T00:51:50.292Z,24.46
2022-08-05T00:52:45.559Z,24.40
2022-08-05T00:54:02.781Z,24.45
2022-08-05T00:55:06.393Z,24.41
2022-08-05T00:56:09.935Z,24.45
2022-08-05T00:57:21.280Z,24.45
2022-08-05T00:58:27.529Z,24.44
2022-08-05T00:59:44.161Z,24.37
2022-08-05T01:00:50.353Z,24.49
2022-08-05T01:01:54.553Z,24.43
2022-08-05T01:02:59.745Z,24.40
2022-08-05T01:04:03.878Z,24.47
2022-08-05T01:05:16.842Z,24.48
2022-08-05T01:06:20.080Z,24.40
2022-08-05T01:07:31.620Z,24.36
2022-08-05T01:08:43.344Z,24.41
2022-08-05T01:09:55.467Z,24.42
2022-08-05T01:11:04.917Z,24.37
2022-08-05T01:12:18.601Z,24.45
2022-08-05T01:13:58.356Z,24.37
2022-08-05T01:15:35.840Z,24.45
2022-08-05T01:16:51.018Z,24.34
2022-08-05T01:18:03.714Z,24.31
2022-08-05T01:19:36.735Z,24.31
2022-08-05T01:21:00.735Z,24.22
2022-08-05T01:22:41.521Z,24.25
2022-08-05T01:24:13.032Z,24.29
2022-08-05T01:25:40.668Z,24.23
2022-08-05T01:27:17.953Z,24.19
2022-08-05T01:28:41.031Z,24.17
2022-08-05T01:29:53.043Z,24.00
2022-08-05T01:31:02.961Z,24.05
2022-08-05T01:32:12.518Z,24.04
2022-08-05T01:33:26.403Z,24.07
2022-08-05T01:34:35.849Z,23.98
2022-08-05T01:35:52.147Z,23.94
2022-08-05T01:37:06.145Z,23.99
2022-08-05T01:38:24.846Z,24.04
2022-08-05T01:39:45.664Z,24.00
2022-08-05T01:40:52.418Z,23.96
2022-08-05T01:41:58.262Z,23.88
2022-08-05T01:43:03.963Z,23.76
2022-08-05T01:44:09.953Z,23.76
2022-08-05T01:45:17.256Z,23.61
2022-08-05T01:46:43.092Z,23.42
2022-08-05T01:47:47.835Z,23.41
2022-08-05T01:48:53.793Z,23.36
2022-08-05T01:50:02.077Z,23.27
2022-08-05T01:51:12.408Z,23.09
2022-08-05T01:52:19.212Z,23.11
2022-08-05T01:53:54.500Z,23.01
2022-08-05T01:54:53.393Z,23.07
2022-08-05T01:56:00.143Z,22.84
2022-08-05T01:58:12.357Z,22.77
2022-08-05T01:58:40.664Z,22.62
2022-08-05T01:59:53.242Z,22.57
2022-08-05T02:00:58.326Z,22.43
2022-08-05T02:02:03.060Z,22.40
2022-08-05T02:03:41.468Z,22.36
2022-08-05T02:04:49.646Z,22.16
2022-08-05T02:05:59.805Z,22.22
2022-08-05T02:07:04.168Z,22.18
2022-08-05T02:08:11.536Z,22.29
2022-08-05T02:09:14.663Z,22.40
2022-08-05T02:10:19.262Z,22.44
2022-08-05T02:11:55.827Z,22.21
2022-08-05T02:13:13.028Z,21.96
2022-08-05T02:14:32.004Z,21.94
2022-08-05T02:15:39.045Z,21.87
2022-08-05T02:16:53.065Z,21.83
2022-08-05T02:18:32.446Z,21.70
2022-08-05T02:19:28.642Z,21.74
2022-08-05T02:20:48.924Z,21.77
2022-08-05T02:22:02.029Z,21.73
2022-08-05T02:23:11.047Z,21.75
2022-08-05T02:24:19.612Z,21.78
2022-08-05T02:25:32.967Z,21.79
2022-08-05T02:26:54.547Z,21.74
2022-08-05T02:28:00.529Z,21.68
2022-08-05T02:29:04.191Z,21.66
2022-08-05T02:30:10.991Z,21.68
2022-08-05T02:31:24.800Z,21.78
2022-08-05T02:32:31.599Z,21.73
2022-08-05T02:33:42.307Z,21.66
2022-08-05T02:34:46.593Z,21.75
2022-08-05T02:36:01.293Z,21.95
2022-08-05T02:37:08.809Z,21.98
2022-08-05T02:38:19.495Z,21.96
2022-08-05T02:39:25.347Z,21.95
2022-08-05T02:40:31.935Z,22.00
2022-08-05T02:41:36.404Z,22.02
2022-08-05T02:43:00.787Z,22.12
2022-08-05T02:44:12.161Z,22.23
2022-08-05T02:45:19.481Z,22.18
2022-08-05T02:46:29.453Z,22.16
2022-08-05T02:47:58.488Z,22.12
2022-08-05T02:48:58.788Z,22.11
2022-08-05T02:50:06.518Z,22.08
2022-08-05T02:51:10.551Z,22.00
2022-08-05T02:52:29.918Z,22.01
2022-08-05T02:53:39.438Z,22.01
2022-08-05T02:54:52.159Z,22.02
2022-08-05T02:56:00.331Z,22.13
2022-08-05T02:58:11.822Z,22.14
2022-08-05T02:58:38.363Z,22.23
2022-08-05T02:59:50.639Z,22.24
2022-08-05T03:00:56.801Z,22.29
2022-08-05T03:02:01.099Z,22.31
2022-08-05T03:03:10.144Z,22.25
2022-08-05T03:04:15.737Z,22.30
2022-08-05T03:05:21.659Z,22.34
2022-08-05T03:06:54.114Z,22.32
2022-08-05T03:08:08.605Z,22.42
2022-08-05T03:09:15.858Z,22.48
2022-08-05T03:10:30.165Z,22.57
2022-08-05T03:11:56.068Z,22.69
2022-08-05T03:14:03.356Z,22.60
2022-08-05T03:15:12.640Z,22.64
2022-08-05T03:16:16.257Z,22.55
2022-08-05T03:17:23.428Z,22.64
2022-08-05T03:18:29.993Z,22.64
2022-08-05T03:19:36.133Z,22.57
2022-08-05T03:20:44.632Z,22.54
2022-08-05T03:21:52.013Z,22.52
2022-08-05T03:22:57.590Z,22.55
2022-08-05T03:24:05.412Z,22.61
2022-08-05T03:25:32.552Z,22.75
2022-08-05T03:26:35.708Z,22.74
2022-08-05T03:27:39.380Z,22.94
2022-08-05T03:29:01.961Z,22.98
2022-08-05T03:30:09.090Z,22.98
2022-08-05T03:31:18.283Z,22.88
2022-08-05T03:32:39.774Z,22.86
2022-08-05T03:33:52.652Z,22.73
2022-08-05T03:34:55.956Z,22.59
2022-08-05T03:35:59.718Z,22.65
2022-08-05T03:37:03.683Z,22.76
2022-08-05T03:38:06.880Z,22.79
2022-08-05T03:39:13.123Z,22.83
2022-08-05T03:40:24.458Z,22.81
2022-08-05T03:41:38.616Z,22.82
2022-08-05T03:42:51.736Z,22.81
2022-08-05T03:44:08.730Z,23.04
2022-08-05T03:45:21.672Z,23.04
2022-08-05T03:46:26.667Z,23.05
2022-08-05T03:47:35.128Z,23.07
2022-08-05T03:48:39.098Z,23.01
2022-08-05T03:49:51.669Z,22.92
2022-08-05T03:52:48.930Z,22.84
2022-08-05T03:55:49.977Z,22.95
2022-08-05T03:56:00.987Z,22.90
2022-08-05T03:56:31.851Z,22.98
2022-08-05T03:57:42.653Z,23.05
2022-08-05T03:58:48.280Z,22.99
2022-08-05T04:00:09.228Z,22.93
2022-08-05T04:01:16.542Z,22.94
2022-08-05T04:02:37.618Z,22.82
2022-08-05T04:04:08.811Z,22.84
2022-08-05T04:05:11.305Z,22.90
2022-08-05T04:06:16.120Z,22.92
2022-08-05T04:07:19.304Z,22.86
2022-08-05T04:08:36.239Z,22.93
2022-08-05T04:09:53.512Z,22.92
2022-08-05T04:10:58.856Z,22.93
2022-08-05T04:12:03.020Z,22.97
2022-08-05T04:13:07.871Z,22.84
2022-08-05T04:14:10.934Z,22.87
2022-08-05T04:15:24.501Z,22.80
2022-08-05T04:16:32.234Z,22.76
2022-08-05T04:17:55.865Z,22.59
2022-08-05T04:18:58.767Z,22.64
2022-08-05T04:20:04.233Z,22.61
2022-08-05T04:21:10.886Z,22.59
2022-08-05T04:22:14.761Z,22.43
2022-08-05T04:23:57.152Z,22.45
2022-08-05T04:24:52.645Z,22.42
2022-08-05T04:26:00.481Z,22.43
2022-08-05T04:27:04.039Z,22.39
2022-08-05T04:28:11.253Z,22.41
2022-08-05T04:29:15.664Z,22.44
2022-08-05T04:30:18.447Z,22.41
2022-08-05T04:31:21.683Z,22.47
2022-08-05T04:32:31.101Z,22.41
2022-08-05T04:34:18.782Z,22.44
2022-08-05T04:34:59.193Z,22.64
2022-08-05T04:36:16.247Z,22.78
2022-08-05T04:38:00.549Z,22.76
2022-08-05T04:38:50.981Z,22.89
2022-08-05T04:39:55.739Z,22.93
2022-08-05T04:40:58.844Z,22.93
2022-08-05T04:42:01.891Z,22.99
2022-08-05T04:43:06.923Z,23.03
2022-08-05T04:44:14.382Z,23.11
2022-08-05T04:45:31.143Z,23.25
2022-08-05T04:46:42.559Z,23.26
2022-08-05T04:47:49.904Z,23.20
2022-08-05T04:48:52.616Z,23.22
2022-08-05T04:50:01.897Z,23.30
2022-08-05T04:51:11.059Z,23.35
2022-08-05T04:52:15.160Z,23.49
2022-08-05T04:53:19.184Z,23.62
2022-08-05T04:54:27.214Z,23.64
2022-08-05T04:56:11.881Z,23.71
2022-08-05T04:56:59.641Z,23.72
2022-08-05T04:58:02.677Z,23.73
2022-08-05T04:59:14.042Z,23.88
2022-08-05T05:00:27.108Z,23.81
2022-08-05T05:01:33.768Z,23.91
2022-08-05T05:02:53.223Z,24.02
2022-08-05T05:03:55.959Z,24.02
2022-08-05T05:05:01.672Z,24.15
2022-08-05T05:06:40.440Z,24.20
2022-08-05T05:07:29.624Z,24.18
2022-08-05T05:08:37.641Z,24.23
2022-08-05T05:09:46.060Z,24.16
2022-08-05T05:10:56.510Z,24.21
2022-08-05T05:12:03.085Z,24.27
2022-08-05T05:13:06.233Z,24.25
2022-08-05T05:14:10.746Z,24.26
2022-08-05T05:15:56.452Z,24.25
2022-08-05T05:16:48.278Z,24.41
2022-08-05T05:17:56.989Z,24.46
2022-08-05T05:19:19.545Z,24.46
2022-08-05T05:20:28.248Z,24.53
2022-08-05T05:21:33.011Z,24.58
2022-08-05T05:22:36.284Z,24.59
2022-08-05T05:24:03.695Z,24.67
2022-08-05T05:25:16.814Z,24.74
2022-08-05T05:26:28.850Z,24.82
2022-08-05T05:27:44.969Z,24.90
2022-08-05T05:28:48.924Z,24.89
2022-08-05T05:30:04.327Z,24.92
2022-08-05T05:31:11.479Z,25.04
2022-08-05T05:32:15.598Z,25.06
2022-08-05T05:33:23.254Z,25.16
2022-08-05T05:34:27.340Z,25.13
2022-08-05T05:35:39.538Z,25.16
2022-08-05T05:36:47.070Z,25.26
2022-08-05T05:37:59.715Z,25.29
2022-08-05T05:39:04.958Z,25.39
2022-08-05T05:40:15.776Z,25.58
2022-08-05T05:41:18.632Z,25.61
2022-08-05T05:42:21.577Z,25.65
2022-08-05T05:43:57.293Z,25.63
2022-08-05T05:44:47.662Z,25.78
2022-08-05T05:45:50.567Z,25.75
2022-08-05T05:46:53.369Z,25.77
2022-08-05T05:48:06.534Z,25.86
2022-08-05T05:49:22.607Z,25.85
2022-08-05T05:50:26.559Z,25.87
2022-08-05T05:51:29.367Z,25.91
2022-08-05T05:52:52.397Z,26.05
2022-08-05T05:53:59.560Z,26.16
2022-08-05T05:55:07.482Z,26.18
2022-08-05T05:56:16.886Z,26.21
2022-08-05T05:57:51.999Z,26.37
2022-08-05T05:58:55.856Z,26.39
2022-08-05T05:59:58.663Z,26.39
2022-08-05T06:01:13.265Z,26.35
2022-08-05T06:02:32.626Z,26.49
2022-08-05T06:04:00.855Z,26.46
2022-08-05T06:05:10.415Z,26.57
2022-08-05T06:06:19.782Z,26.61
2022-08-05T06:07:41.570Z,26.60
2022-08-05T06:08:45.144Z,26.68
2022-08-05T06:10:01.599Z,26.68
2022-08-05T06:11:07.928Z,26.65
2022-08-05T06:12:12.113Z,26.75
2022-08-05T06:13:15.172Z,26.84
2022-08-05T06:14:17.972Z,26.89
2022-08-05T06:15:23.794Z,26.99
2022-08-05T06:16:33.073Z,27.07
2022-08-05T06:17:53.574Z,27.09
2022-08-05T06:19:00.228Z,26.98
2022-08-05T06:20:06.103Z,26.96
2022-08-05T06:21:21.690Z,27.09
2022-08-05T06:22:27.160Z,27.16
2022-08-05T06:23:43.684Z,27.27
2022-08-05T06:24:48.361Z,27.42
2022-08-05T06:26:12.376Z,27.49
2022-08-05T06:27:17.276Z,27.41
2022-08-05T06:28:38.262Z,27.59
2022-08-05T06:29:52.097Z,27.68
2022-08-05T06:31:11.283Z,27.61
2022-08-05T06:32:28.918Z,27.75
2022-08-05T06:33:33.395Z,27.74
2022-08-05T06:34:56.518Z,27.80
2022-08-05T06:36:03.874Z,27.80
2022-08-05T06:37:12.861Z,27.67
2022-08-05T06:38:15.941Z,27.90
2022-08-05T06:39:19.027Z,28.04
2022-08-05T06:40:28.017Z,28.09
2022-08-05T06:41:35.587Z,28.18
2022-08-05T06:42:44.325Z,27.96
2022-08-05T06:43:59.153Z,27.94
2022-08-05T06:45:08.333Z,27.95
2022-08-05T06:46:11.939Z,28.08
2022-08-05T06:47:30.105Z,28.23
2022-08-05T06:48:56.698Z,28.33
2022-08-05T06:50:05.408Z,28.38
2022-08-05T06:51:09.944Z,28.38
2022-08-05T06:52:37.221Z,28.51
2022-08-05T06:53:41.470Z,28.58
2022-08-05T06:54:56.733Z,28.56
2022-08-05T06:56:00.742Z,28.63
2022-08-05T06:57:58.162Z,28.82
2022-08-05T06:58:35.113Z,28.74
2022-08-05T06:59:42.243Z,28.75
2022-08-05T07:00:51.979Z,28.68
2022-08-05T07:01:54.815Z,28.68
2022-08-05T07:03:00.713Z,28.53
2022-08-05T07:04:03.948Z,28.47
2022-08-05T07:05:15.308Z,28.61
2022-08-05T07:06:23.510Z,28.58
2022-08-05T07:07:43.114Z,28.84
2022-08-05T07:08:47.487Z,29.02
2022-08-05T07:09:55.393Z,29.02
2022-08-05T07:11:05.465Z,29.23
2022-08-05T07:12:36.806Z,29.36
2022-08-05T07:14:00.001Z,29.29
2022-08-05T07:15:34.502Z,29.43
2022-08-05T07:17:58.189Z,29.36
2022-08-05T07:18:17.675Z,29.50
2022-08-05T07:20:53.333Z,29.82
2022-08-05T07:22:00.073Z,29.82
2022-08-05T07:23:04.487Z,29.49
2022-08-05T07:25:22.525Z,29.52
2022-08-05T07:26:39.456Z,29.68
2022-08-05T07:27:57.687Z,29.73
2022-08-05T07:29:04.032Z,29.58
2022-08-05T07:30:27.873Z,29.69
2022-08-05T07:31:41.109Z,29.59
2022-08-05T07:32:53.728Z,29.86
2022-08-05T07:33:56.530Z,30.13
2022-08-05T07:36:02.439Z,30.01
2022-08-05T07:36:26.640Z,29.85
2022-08-05T07:37:37.514Z,29.98
2022-08-05T07:38:44.153Z,29.96
2022-08-05T07:40:26.088Z,29.87
2022-08-05T07:42:08.866Z,30.05
2022-08-05T07:42:36.393Z,30.05
2022-08-05T07:43:39.342Z,30.26
2022-08-05T07:44:42.210Z,30.39
2022-08-05T07:45:57.518Z,30.19
2022-08-05T07:47:01.290Z,30.23
2022-08-05T07:49:00.869Z,30.19
2022-08-05T07:49:54.333Z,30.32
2022-08-05T07:50:57.838Z,30.02
2022-08-05T07:52:02.547Z,29.85
2022-08-05T07:53:06.306Z,30.15
2022-08-05T07:54:10.597Z,30.35
2022-08-05T07:55:44.619Z,30.50
2022-08-05T07:57:01.932Z,30.68
2022-08-05T07:58:03.110Z,30.63
2022-08-05T07:59:08.545Z,30.34
2022-08-05T08:00:14.695Z,30.51
2022-08-05T08:01:18.168Z,30.35
2022-08-05T08:02:31.226Z,30.23
2022-08-05T08:03:51.374Z,30.23
2022-08-05T08:04:54.699Z,30.65
2022-08-05T08:05:57.600Z,30.89
2022-08-05T08:07:02.041Z,31.04
2022-08-05T08:08:12.425Z,31.40
2022-08-05T08:09:15.570Z,31.45
2022-08-05T08:10:20.495Z,31.66
2022-08-05T08:11:27.620Z,31.57
2022-08-05T08:12:49.305Z,31.46
2022-08-05T08:14:00.750Z,31.57
2022-08-05T08:15:04.659Z,31.77
2022-08-05T08:16:34.643Z,31.57
2022-08-05T08:17:35.676Z,31.26
2022-08-05T08:18:40.435Z,31.71
2022-08-05T08:20:23.422Z,31.92
2022-08-05T08:21:09.745Z,32.07
2022-08-05T08:22:19.051Z,31.83
2022-08-05T08:24:01.004Z,31.32
2022-08-05T08:24:51.863Z,31.50
2022-08-05T08:26:00.503Z,31.38
2022-08-05T08:27:07.190Z,31.59
2022-08-05T08:28:18.532Z,31.34
2022-08-05T08:30:05.915Z,31.81
2022-08-05T08:30:56.120Z,32.06
2022-08-05T08:32:00.143Z,31.79
2022-08-05T08:33:09.214Z,32.15
2022-08-05T08:34:30.706Z,32.72
2022-08-05T08:35:41.414Z,32.77
2022-08-05T08:36:47.379Z,32.25
2022-08-05T08:37:56.340Z,32.81
2022-08-05T08:38:59.367Z,32.71
2022-08-05T08:40:05.528Z,32.99
2022-08-05T08:41:14.033Z,32.75
2022-08-05T08:42:34.063Z,32.42
2022-08-05T08:45:22.114Z,32.32
2022-08-05T08:45:22.832Z,32.50
2022-08-05T08:46:32.423Z,32.58
2022-08-05T08:48:05.785Z,32.35
2022-08-05T08:49:17.300Z,32.43
2022-08-05T08:50:33.057Z,32.74
2022-08-05T08:52:03.647Z,32.98
2022-08-05T08:53:12.595Z,32.88
2022-08-05T08:54:16.628Z,33.03
2022-08-05T08:55:31.951Z,32.59
2022-08-05T08:56:47.820Z,32.96
2022-08-05T08:57:58.300Z,32.97
2022-08-05T08:59:01.736Z,33.41
2022-08-05T09:00:13.038Z,33.56
2022-08-05T09:01:19.815Z,33.83
2022-08-05T09:02:26.816Z,34.15
2022-08-05T09:03:40.500Z,33.89
2022-08-05T09:05:16.546Z,33.61
2022-08-05T09:06:15.812Z,33.59
2022-08-05T09:07:28.974Z,33.93
2022-08-05T09:08:42.334Z,33.89
2022-08-05T09:09:47.224Z,33.88
2022-08-05T09:10:53.464Z,33.36
2022-08-05T09:12:02.255Z,33.33
2022-08-05T09:13:15.890Z,33.34
2022-08-05T09:14:56.649Z,33.31
2022-08-05T09:15:41.769Z,33.61
2022-08-05T09:16:48.733Z,33.16
2022-08-05T09:17:52.920Z,33.69
2022-08-05T09:18:56.628Z,34.36
2022-08-05T09:20:05.079Z,34.88
2022-08-05T09:21:11.718Z,35.01
2022-08-05T09:22:32.005Z,34.74
2022-08-05T09:23:43.550Z,35.19
2022-08-05T09:25:24.069Z,35.18
2022-08-05T09:26:30.114Z,34.58
2022-08-05T09:28:05.720Z,34.34
2022-08-05T09:29:09.667Z,34.78
2022-08-05T09:30:17.328Z,35.12
2022-08-05T09:32:41.064Z,35.14
2022-08-05T09:32:51.421Z,35.17
2022-08-05T09:34:01.612Z,34.90
2022-08-05T09:35:26.533Z,34.46
2022-08-05T09:36:55.945Z,34.93
2022-08-05T09:38:16.282Z,35.42
2022-08-05T09:39:23.548Z,35.42
2022-08-05T09:40:38.478Z,35.06
2022-08-05T09:42:04.770Z,34.28
2022-08-05T09:43:10.422Z,34.93
2022-08-05T09:44:56.805Z,34.79
2022-08-05T09:46:06.124Z,35.18
2022-08-05T09:47:15.974Z,35.33
2022-08-05T09:48:27.020Z,34.35
2022-08-05T09:49:31.245Z,34.61
2022-08-05T09:51:00.555Z,35.06
2022-08-05T09:52:18.683Z,35.08
2022-08-05T09:53:25.987Z,34.78
2022-08-05T09:55:56.991Z,34.33
2022-08-05T09:56:35.124Z,35.38
2022-08-05T09:57:45.413Z,35.28
2022-08-05T09:59:08.604Z,35.55
2022-08-05T10:00:19.254Z,36.16
2022-08-05T10:01:32.314Z,36.20
2022-08-05T10:02:38.635Z,36.49
2022-08-05T10:03:59.194Z,36.42
2022-08-05T10:05:08.646Z,36.66
2022-08-05T10:06:15.640Z,36.06
2022-08-05T10:07:20.281Z,36.38
2022-08-05T10:08:38.200Z,36.16
2022-08-05T10:10:14.662Z,36.69
2022-08-05T10:11:18.199Z,36.67
2022-08-05T10:12:33.443Z,36.72
2022-08-05T10:13:47.883Z,36.40
2022-08-05T10:14:54.326Z,36.56
2022-08-05T10:15:58.595Z,35.95
2022-08-05T10:17:37.723Z,35.93
2022-08-05T10:18:39.527Z,36.38
2022-08-05T10:20:03.902Z,36.07
2022-08-05T10:21:11.754Z,36.49
2022-08-05T10:22:30.320Z,35.89
2022-08-05T10:23:59.529Z,36.02
2022-08-05T10:25:01.803Z,36.17
2022-08-05T10:26:07.360Z,35.96
2022-08-05T10:27:16.995Z,36.73
2022-08-05T10:28:29.740Z,36.98
2022-08-05T10:30:41.520Z,36.34
2022-08-05T10:32:53.302Z,36.84
2022-08-05T10:32:55.165Z,36.13
2022-08-05T10:33:54.065Z,36.59
2022-08-05T10:35:00.659Z,36.87
2022-08-05T10:36:05.228Z,36.91
2022-08-05T10:37:12.980Z,37.00
2022-08-05T10:38:19.185Z,36.38
2022-08-05T10:40:03.331Z,36.40
2022-08-05T10:41:05.118Z,35.74
2022-08-05T10:42:32.298Z,36.12
2022-08-05T10:43:46.077Z,36.94
2022-08-05T10:44:54.963Z,36.71
2022-08-05T10:46:06.303Z,36.98
2022-08-05T10:47:26.040Z,37.04
2022-08-05T10:48:52.992Z,37.13
2022-08-05T10:50:33.286Z,37.08
2022-08-05T10:51:28.386Z,37.50
2022-08-05T10:52:49.817Z,37.38
2022-08-05T10:54:05.777Z,37.28
2022-08-05T10:55:25.248Z,37.32
2022-08-05T10:56:37.338Z,37.03
2022-08-05T10:57:44.798Z,37.14
2022-08-05T10:58:53.982Z,36.71
2022-08-05T11:00:29.868Z,37.45
2022-08-05T11:01:55.623Z,37.47
2022-08-05T11:03:25.508Z,36.89
2022-08-05T11:04:30.992Z,36.41
2022-08-05T11:05:36.051Z,36.56
2022-08-05T11:07:04.655Z,36.74
2022-08-05T11:08:36.699Z,37.09
2022-08-05T11:10:04.078Z,37.22
2022-08-05T11:11:53.485Z,36.95
2022-08-05T11:12:58.107Z,37.22
2022-08-05T11:14:04.218Z,36.77
2022-08-05T11:15:20.321Z,37.14
2022-08-05T11:16:47.422Z,37.57
2022-08-05T11:18:00.087Z,37.54
2022-08-05T11:20:10.691Z,37.81
2022-08-05T11:20:57.401Z,37.62
2022-08-05T11:22:42.382Z,37.69
2022-08-05T11:24:05.470Z,37.24
2022-08-05T11:26:05.212Z,37.75
2022-08-05T11:27:51.179Z,37.79
2022-08-05T11:28:55.026Z,36.71
2022-08-05T11:30:01.035Z,36.35
2022-08-05T11:31:09.753Z,37.08
2022-08-05T11:32:29.901Z,37.27
2022-08-05T11:33:46.090Z,37.47
2022-08-05T11:34:54.375Z,36.97
2022-08-05T11:36:07.392Z,37.24
2022-08-05T11:38:30.516Z,36.95
2022-08-05T11:38:46.105Z,37.33
2022-08-05T11:40:00.376Z,37.55
2022-08-05T11:41:34.637Z,37.33
2022-08-05T11:42:40.232Z,36.50
2022-08-05T11:44:05.173Z,37.25
2022-08-05T11:45:27.012Z,37.10
2022-08-05T11:47:10.297Z,37.71
2022-08-05T11:48:11.480Z,37.21
2022-08-05T11:49:16.169Z,38.03
2022-08-05T11:50:19.607Z,38.06
2022-08-05T11:51:44.320Z,38.16
2022-08-05T11:52:49.466Z,37.93
2022-08-05T11:53:54.179Z,37.95
2022-08-05T11:55:07.674Z,37.95
2022-08-05T11:56:16.980Z,38.09
2022-08-05T11:57:25.466Z,38.16
2022-08-05T11:58:40.813Z,36.48
2022-08-05T11:59:50.222Z,36.17
2022-08-05T12:01:08.497Z,36.98
2022-08-05T12:02:30.524Z,37.30
2022-08-05T12:03:57.247Z,37.67
2022-08-05T12:05:06.936Z,38.12
2022-08-05T12:06:12.456Z,38.01
2022-08-05T12:07:17.111Z,38.13
2022-08-05T12:08:54.838Z,37.38
2022-08-05T12:10:09.248Z,36.76
2022-08-05T12:11:22.184Z,36.65
2022-08-05T12:12:29.400Z,36.36
2022-08-05T12:13:48.612Z,36.77
2022-08-05T12:14:52.652Z,36.79
2022-08-05T12:15:59.414Z,37.67
2022-08-05T12:18:02.720Z,37.73
2022-08-05T12:18:38.856Z,37.81
2022-08-05T12:20:25.400Z,37.73
2022-08-05T12:21:15.239Z,38.04
2022-08-05T12:22:26.667Z,38.26
2022-08-05T12:23:29.980Z,38.01
2022-08-05T12:24:41.229Z,38.05
2022-08-05T12:25:57.843Z,38.28
2022-08-05T12:27:09.498Z,38.20
2022-08-05T12:28:53.467Z,38.34
2022-08-05T12:30:07.074Z,38.91
2022-08-05T12:31:10.999Z,39.10
2022-08-05T12:32:26.365Z,39.17
2022-08-05T12:33:36.526Z,38.74
2022-08-05T12:34:40.509Z,38.84
2022-08-05T12:35:43.349Z,38.61
2022-08-05T12:36:47.933Z,38.59
2022-08-05T12:37:53.349Z,38.75
2022-08-05T12:39:03.008Z,37.80
2022-08-05T12:40:26.561Z,37.91
2022-08-05T12:41:43.620Z,37.78
2022-08-05T12:42:46.863Z,37.36
2022-08-05T12:43:54.530Z,37.53
2022-08-05T12:45:08.749Z,37.91
2022-08-05T12:46:26.418Z,38.20
2022-08-05T12:47:36.113Z,37.95
2022-08-05T12:48:40.137Z,37.94
2022-08-05T12:50:03.165Z,38.03
2022-08-05T12:52:10.129Z,38.28
2022-08-05T12:52:41.774Z,38.68
2022-08-05T12:53:55.721Z,38.47
2022-08-05T12:54:58.969Z,38.85
2022-08-05T12:56:05.975Z,38.71
2022-08-05T12:58:50.805Z,38.48
2022-08-05T12:59:21.128Z,38.19
2022-08-05T13:02:00.103Z,38.22
2022-08-05T13:02:07.345Z,38.26
2022-08-05T13:03:14.843Z,37.86
2022-08-05T13:04:20.997Z,37.75
2022-08-05T13:05:26.076Z,37.54
2022-08-05T13:06:50.746Z,37.32
2022-08-05T13:07:59.822Z,37.43
2022-08-05T13:09:12.648Z,37.81
2022-08-05T13:10:20.107Z,37.86
2022-08-05T13:12:01.871Z,38.08
2022-08-05T13:12:58.124Z,38.19
2022-08-05T13:14:06.784Z,38.50
2022-08-05T13:15:16.429Z,38.43
2022-08-05T13:16:27.926Z,38.78
2022-08-05T13:17:42.257Z,38.92
2022-08-05T13:18:58.616Z,38.28
2022-08-05T13:20:11.433Z,38.44
2022-08-05T13:21:14.541Z,38.29
2022-08-05T13:22:29.340Z,37.50
2022-08-05T13:23:33.852Z,37.94
2022-08-05T13:24:57.439Z,38.20
2022-08-05T13:26:01.949Z,37.99
2022-08-05T13:27:05.374Z,37.58
2022-08-05T13:28:14.733Z,37.44
2022-08-05T13:29:37.360Z,36.18
2022-08-05T13:30:41.041Z,36.80
2022-08-05T13:32:04.255Z,37.14
2022-08-05T13:33:07.716Z,37.25
2022-08-05T13:34:21.360Z,37.50
2022-08-05T13:35:43.338Z,37.71
2022-08-05T13:36:49.768Z,36.64
2022-08-05T13:37:55.347Z,36.80
2022-08-05T13:38:59.288Z,36.77
2022-08-05T13:40:16.383Z,36.16
2022-08-05T13:41:25.792Z,36.62
2022-08-05T13:42:41.469Z,36.28
2022-08-05T13:43:54.996Z,36.42
2022-08-05T13:44:58.924Z,36.59
2022-08-05T13:46:01.939Z,37.01
2022-08-05T13:47:09.037Z,36.83
2022-08-05T13:48:57.769Z,37.17
2022-08-05T13:49:35.512Z,37.40
2022-08-05T13:50:38.465Z,37.32
2022-08-05T13:51:46.701Z,37.11
2022-08-05T13:52:50.139Z,37.08
2022-08-05T13:53:52.933Z,37.32
2022-08-05T13:55:01.139Z,37.43
2022-08-05T13:56:04.832Z,37.12
2022-08-05T13:57:21.748Z,37.25
2022-08-05T13:58:30.818Z,37.43
2022-08-05T13:59:34.673Z,37.77
2022-08-05T14:00:38.686Z,37.52
2022-08-05T14:01:56.291Z,37.32
2022-08-05T14:03:01.443Z,37.30
2022-08-05T14:04:26.705Z,37.05
2022-08-05T14:06:04.876Z,37.02
2022-08-05T14:07:12.082Z,36.92
2022-08-05T14:08:21.384Z,37.26
2022-08-05T14:09:30.809Z,37.38
2022-08-05T14:10:35.058Z,37.38
2022-08-05T14:12:00.688Z,37.03
2022-08-05T14:13:04.230Z,36.86
2022-08-05T14:14:08.792Z,36.66
2022-08-05T14:16:07.798Z,36.85
2022-08-05T14:16:36.914Z,36.90
2022-08-05T14:17:45.290Z,36.99
2022-08-05T14:18:50.988Z,37.17
2022-08-05T14:19:56.922Z,37.06
2022-08-05T14:22:08.336Z,36.81
2022-08-05T14:22:30.539Z,37.13
2022-08-05T14:23:37.278Z,37.23
2022-08-05T14:24:40.217Z,37.33
2022-08-05T14:25:44.982Z,37.19
2022-08-05T14:27:08.469Z,37.07
2022-08-05T14:28:25.973Z,37.41
2022-08-05T14:29:31.399Z,36.99
2022-08-05T14:30:34.420Z,37.27
2022-08-05T14:32:02.910Z,36.86
2022-08-05T14:33:01.975Z,36.81
2022-08-05T14:34:06.260Z,36.50
2022-08-05T14:35:14.985Z,35.87
2022-08-05T14:36:21.241Z,35.65
2022-08-05T14:37:44.834Z,35.77
2022-08-05T14:38:48.294Z,35.57
2022-08-05T14:39:57.019Z,35.64
2022-08-05T14:41:06.370Z,35.91
2022-08-05T14:42:20.613Z,36.35
2022-08-05T14:43:57.484Z,36.28
2022-08-05T14:44:47.581Z,36.47
2022-08-05T14:45:50.502Z,36.69
2022-08-05T14:46:53.730Z,36.92
2022-08-05T14:48:05.439Z,36.77
2022-08-05T14:49:11.462Z,36.64
2022-08-05T14:50:19.119Z,36.37
2022-08-05T14:51:22.358Z,36.33
2022-08-05T14:52:50.085Z,36.22
2022-08-05T14:54:28.752Z,36.16
2022-08-05T14:55:15.413Z,35.84
2022-08-05T14:56:22.638Z,36.27
2022-08-05T14:57:25.686Z,36.33
2022-08-05T14:58:53.287Z,36.35
2022-08-05T14:59:56.262Z,36.21
2022-08-05T15:01:00.401Z,36.11
2022-08-05T15:02:14.915Z,35.33
2022-08-05T15:03:33.939Z,35.97
2022-08-05T15:04:43.396Z,36.13
2022-08-05T15:06:12.769Z,36.21
2022-08-05T15:07:10.849Z,36.25
2022-08-05T15:08:58.090Z,36.33
2022-08-05T15:09:57.072Z,36.35
2022-08-05T15:11:04.983Z,36.31
2022-08-05T15:12:11.814Z,36.30
2022-08-05T15:13:20.330Z,36.19
2022-08-05T15:14:34.803Z,36.19
2022-08-05T15:15:55.964Z,36.03
2022-08-05T15:16:59.196Z,36.11
2022-08-05T15:18:03.879Z,35.80
2022-08-05T15:19:23.207Z,35.93
2022-08-05T15:20:26.924Z,36.05
2022-08-05T15:21:30.513Z,36.06
2022-08-05T15:22:33.436Z,36.18
2022-08-05T15:23:38.041Z,35.94
2022-08-05T15:24:41.116Z,36.10
2022-08-05T15:25:51.916Z,35.93
2022-08-05T15:26:57.118Z,35.37
2022-08-05T15:28:00.558Z,35.81
2022-08-05T15:29:03.638Z,35.85
2022-08-05T15:30:07.089Z,35.84
2022-08-05T15:31:10.795Z,35.74
2022-08-05T15:32:13.523Z,35.81
2022-08-05T15:34:05.113Z,35.85
2022-08-05T15:34:42.232Z,36.00
2022-08-05T15:35:45.824Z,35.98
2022-08-05T15:36:51.992Z,35.52
2022-08-05T15:38:33.060Z,35.61